sensor_id;sensor_type;location;lat;lon;timestamp;temperature;humidity
12413;DHT22;13877;18.896;-99.222;2024-01-07T00:00:17;22.70;1.00
12413;DHT22;13877;18.896;-99.222;2024-01-07T00:02:44;22.50;1.00
12413;DHT22;13877;18.896;-99.222;2024-01-07T00:05:11;22.50;1.00
12413;DHT22;13877;18.896;-99.222;2024-01-07T00:07:39;22.40;1.00
12413;DHT22;13877;18.896;-99.222;2024-01-07T00:10:07;22.40;1.00
12413;DHT22;13877;18.896;-99.222;2024-01-07T00:12:36;22.20;1.00
12413;DHT22;13877;18.896;-99.222;2024-01-07T00:15:03;22.20;1.00
12413;DHT22;13877;18.896;-99.222;2024-01-07T00:17:30;21.90;1.00
12413;DHT22;13877;18.896;-99.222;2024-01-07T00:19:59;21.70;1.00
12413;DHT22;13877;18.896;-99.222;2024-01-07T00:22:26;21.70;1.00
12413;DHT22;13877;18.896;-99.222;2024-01-07T00:24:53;21.50;1.00
12413;DHT22;13877;18.896;-99.222;2024-01-07T00:27:22;21.50;1.00
12413;DHT22;13877;18.896;-99.222;2024-01-07T00:29:50;21.50;1.00
12413;DHT22;13877;18.896;-99.222;2024-01-07T00:32:21;21.30;1.00
12413;DHT22;13877;18.896;-99.222;2024-01-07T00:34:48;21.00;1.00
12413;DHT22;13877;18.896;-99.222;2024-01-07T00:37:16;20.90;1.00
12413;DHT22;13877;18.896;-99.222;2024-01-07T00:39:44;20.80;1.00
12413;DHT22;13877;18.896;-99.222;2024-01-07T00:42:13;20.80;1.00
12413;DHT22;13877;18.896;-99.222;2024-01-07T00:44:40;20.80;1.00
12413;DHT22;13877;18.896;-99.222;2024-01-07T00:47:07;20.90;1.00
12413;DHT22;13877;18.896;-99.222;2024-01-07T00:49:34;20.90;1.00
12413;DHT22;13877;18.896;-99.222;2024-01-07T00:52:04;20.80;1.00
12413;DHT22;13877;18.896;-99.222;2024-01-07T00:54:31;20.80;1.00
12413;DHT22;13877;18.896;-99.222;2024-01-07T00:56:58;20.80;1.00
12413;DHT22;13877;18.896;-99.222;2024-01-07T00:59:28;20.60;1.00
12413;DHT22;13877;18.896;-99.222;2024-01-07T01:01:57;20.60;1.00
12413;DHT22;13877;18.896;-99.222;2024-01-07T01:04:24;20.60;1.00
12413;DHT22;13877;18.896;-99.222;2024-01-07T01:06:52;20.70;1.00
12413;DHT22;13877;18.896;-99.222;2024-01-07T01:09:19;20.70;1.00
12413;DHT22;13877;18.896;-99.222;2024-01-07T01:11:49;20.60;1.00
12413;DHT22;13877;18.896;-99.222;2024-01-07T01:14:16;20.50;1.00
12413;DHT22;13877;18.896;-99.222;2024-01-07T01:16:43;20.40;1.00
12413;DHT22;13877;18.896;-99.222;2024-01-07T01:19:10;20.50;1.00
12413;DHT22;13877;18.896;-99.222;2024-01-07T01:21:41;20.60;1.00
12413;DHT22;13877;18.896;-99.222;2024-01-07T01:24:08;20.60;1.00
12413;DHT22;13877;18.896;-99.222;2024-01-07T01:26:36;20.60;1.00
12413;DHT22;13877;18.896;-99.222;2024-01-07T01:29:03;20.60;1.00
12413;DHT22;13877;18.896;-99.222;2024-01-07T01:31:31;20.60;1.00
12413;DHT22;13877;18.896;-99.222;2024-01-07T01:33:58;20.50;1.00
12413;DHT22;13877;18.896;-99.222;2024-01-07T01:36:28;20.50;1.00
12413;DHT22;13877;18.896;-99.222;2024-01-07T01:38:55;20.40;1.00
12413;DHT22;13877;18.896;-99.222;2024-01-07T01:41:23;20.30;1.00
12413;DHT22;13877;18.896;-99.222;2024-01-07T01:43:50;20.40;1.00
12413;DHT22;13877;18.896;-99.222;2024-01-07T01:46:18;20.40;1.00
12413;DHT22;13877;18.896;-99.222;2024-01-07T01:48:45;20.40;1.00
12413;DHT22;13877;18.896;-99.222;2024-01-07T01:51:13;20.40;1.00
12413;DHT22;13877;18.896;-99.222;2024-01-07T01:53:40;20.50;1.00
12413;DHT22;13877;18.896;-99.222;2024-01-07T01:56:08;20.50;1.00
12413;DHT22;13877;18.896;-99.222;2024-01-07T01:58:37;20.40;1.00
12413;DHT22;13877;18.896;-99.222;2024-01-07T02:01:04;20.40;1.00
12413;DHT22;13877;18.896;-99.222;2024-01-07T02:03:32;20.30;1.00
12413;DHT22;13877;18.896;-99.222;2024-01-07T02:05:59;20.30;1.00
12413;DHT22;13877;18.896;-99.222;2024-01-07T02:08:27;20.30;1.00
12413;DHT22;13877;18.896;-99.222;2024-01-07T02:10:54;20.40;1.00
12413;DHT22;13877;18.896;-99.222;2024-01-07T02:13:22;20.30;1.00
12413;DHT22;13877;18.896;-99.222;2024-01-07T02:15:50;20.30;1.00
12413;DHT22;13877;18.896;-99.222;2024-01-07T02:18:17;20.20;1.00
12413;DHT22;13877;18.896;-99.222;2024-01-07T02:20:45;20.20;1.00
12413;DHT22;13877;18.896;-99.222;2024-01-07T02:23:12;20.20;1.00
12413;DHT22;13877;18.896;-99.222;2024-01-07T02:25:41;20.10;1.00
12413;DHT22;13877;18.896;-99.222;2024-01-07T02:28:10;20.10;1.00
12413;DHT22;13877;18.896;-99.222;2024-01-07T02:30:38;20.10;1.00
12413;DHT22;13877;18.896;-99.222;2024-01-07T02:33:05;20.20;1.00
12413;DHT22;13877;18.896;-99.222;2024-01-07T02:35:32;20.30;1.00
12413;DHT22;13877;18.896;-99.222;2024-01-07T02:38:00;20.20;1.00
12413;DHT22;13877;18.896;-99.222;2024-01-07T02:40:29;20.20;1.00
12413;DHT22;13877;18.896;-99.222;2024-01-07T02:42:57;20.20;1.00
12413;DHT22;13877;18.896;-99.222;2024-01-07T02:45:25;20.10;1.00
12413;DHT22;13877;18.896;-99.222;2024-01-07T02:47:52;20.20;1.00
12413;DHT22;13877;18.896;-99.222;2024-01-07T02:50:20;20.20;1.00
12413;DHT22;13877;18.896;-99.222;2024-01-07T02:52:48;20.20;1.00
12413;DHT22;13877;18.896;-99.222;2024-01-07T02:55:16;20.30;1.00
12413;DHT22;13877;18.896;-99.222;2024-01-07T02:57:43;20.20;1.00
12413;DHT22;13877;18.896;-99.222;2024-01-07T03:00:11;20.20;1.00
12413;DHT22;13877;18.896;-99.222;2024-01-07T03:02:39;20.30;1.00
12413;DHT22;13877;18.896;-99.222;2024-01-07T03:05:06;20.20;1.00
12413;DHT22;13877;18.896;-99.222;2024-01-07T03:07:34;20.10;1.00
12413;DHT22;13877;18.896;-99.222;2024-01-07T03:10:01;19.70;1.00
12413;DHT22;13877;18.896;-99.222;2024-01-07T03:12:28;19.50;1.00
12413;DHT22;13877;18.896;-99.222;2024-01-07T03:14:56;19.50;1.00
12413;DHT22;13877;18.896;-99.222;2024-01-07T03:17:25;19.90;1.00
12413;DHT22;13877;18.896;-99.222;2024-01-07T03:19:52;19.80;1.00
12413;DHT22;13877;18.896;-99.222;2024-01-07T03:22:20;19.80;1.00
12413;DHT22;13877;18.896;-99.222;2024-01-07T03:24:47;19.70;1.00
12413;DHT22;13877;18.896;-99.222;2024-01-07T03:27:14;19.70;1.00
12413;DHT22;13877;18.896;-99.222;2024-01-07T03:29:43;19.40;1.00
12413;DHT22;13877;18.896;-99.222;2024-01-07T03:32:12;19.10;1.00
12413;DHT22;13877;18.896;-99.222;2024-01-07T03:34:39;18.70;1.00
12413;DHT22;13877;18.896;-99.222;2024-01-07T03:37:07;18.60;1.00
12413;DHT22;13877;18.896;-99.222;2024-01-07T03:39:34;18.50;1.00
12413;DHT22;13877;18.896;-99.222;2024-01-07T03:42:03;18.50;1.00
12413;DHT22;13877;18.896;-99.222;2024-01-07T03:44:32;18.60;1.00
12413;DHT22;13877;18.896;-99.222;2024-01-07T03:47:13;18.70;1.00
12413;DHT22;13877;18.896;-99.222;2024-01-07T03:49:41;18.70;1.00
12413;DHT22;13877;18.896;-99.222;2024-01-07T03:52:08;18.70;1.00
12413;DHT22;13877;18.896;-99.222;2024-01-07T03:54:36;18.70;1.00
12413;DHT22;13877;18.896;-99.222;2024-01-07T03:57:03;18.70;1.00
12413;DHT22;13877;18.896;-99.222;2024-01-07T03:59:30;18.50;1.00
12413;DHT22;13877;18.896;-99.222;2024-01-07T04:01:57;18.50;1.00
12413;DHT22;13877;18.896;-99.222;2024-01-07T04:04:25;18.50;1.00
12413;DHT22;13877;18.896;-99.222;2024-01-07T04:06:53;18.60;1.00
12413;DHT22;13877;18.896;-99.222;2024-01-07T04:09:20;18.60;1.00
12413;DHT22;13877;18.896;-99.222;2024-01-07T04:11:47;18.60;1.00
12413;DHT22;13877;18.896;-99.222;2024-01-07T04:14:16;18.50;1.00
12413;DHT22;13877;18.896;-99.222;2024-01-07T04:16:43;18.40;1.00
12413;DHT22;13877;18.896;-99.222;2024-01-07T04:19:10;18.40;1.00
12413;DHT22;13877;18.896;-99.222;2024-01-07T04:21:40;18.30;1.00
12413;DHT22;13877;18.896;-99.222;2024-01-07T04:24:13;18.30;1.00
12413;DHT22;13877;18.896;-99.222;2024-01-07T04:26:40;18.40;1.00
12413;DHT22;13877;18.896;-99.222;2024-01-07T04:29:09;18.60;1.00
12413;DHT22;13877;18.896;-99.222;2024-01-07T04:31:37;18.70;1.00
12413;DHT22;13877;18.896;-99.222;2024-01-07T04:34:04;18.60;1.00
12413;DHT22;13877;18.896;-99.222;2024-01-07T04:36:32;18.30;1.00
12413;DHT22;13877;18.896;-99.222;2024-01-07T04:39:02;18.10;1.00
12413;DHT22;13877;18.896;-99.222;2024-01-07T04:41:30;18.10;1.00
12413;DHT22;13877;18.896;-99.222;2024-01-07T04:43:57;18.10;1.00
12413;DHT22;13877;18.896;-99.222;2024-01-07T04:46:24;18.30;1.00
12413;DHT22;13877;18.896;-99.222;2024-01-07T04:48:51;18.20;1.00
12413;DHT22;13877;18.896;-99.222;2024-01-07T04:51:19;18.10;1.00
12413;DHT22;13877;18.896;-99.222;2024-01-07T04:53:46;17.90;1.00
12413;DHT22;13877;18.896;-99.222;2024-01-07T04:56:15;17.90;1.00
12413;DHT22;13877;18.896;-99.222;2024-01-07T04:58:42;18.00;1.00
12413;DHT22;13877;18.896;-99.222;2024-01-07T05:01:09;18.00;1.00
12413;DHT22;13877;18.896;-99.222;2024-01-07T05:03:36;18.20;1.00
12413;DHT22;13877;18.896;-99.222;2024-01-07T05:06:09;18.20;1.00
12413;DHT22;13877;18.896;-99.222;2024-01-07T05:08:37;18.20;1.00
12413;DHT22;13877;18.896;-99.222;2024-01-07T05:11:04;18.10;1.00
12413;DHT22;13877;18.896;-99.222;2024-01-07T05:13:32;18.10;1.00
12413;DHT22;13877;18.896;-99.222;2024-01-07T05:16:00;18.20;1.00
12413;DHT22;13877;18.896;-99.222;2024-01-07T05:18:27;18.20;1.00
12413;DHT22;13877;18.896;-99.222;2024-01-07T05:20:54;18.10;1.00
12413;DHT22;13877;18.896;-99.222;2024-01-07T05:23:21;17.80;1.00
12413;DHT22;13877;18.896;-99.222;2024-01-07T05:25:50;17.80;1.00
12413;DHT22;13877;18.896;-99.222;2024-01-07T05:28:18;17.90;1.00
12413;DHT22;13877;18.896;-99.222;2024-01-07T05:30:47;18.20;1.00
12413;DHT22;13877;18.896;-99.222;2024-01-07T05:33:14;18.20;1.00
12413;DHT22;13877;18.896;-99.222;2024-01-07T05:35:45;18.30;1.00
12413;DHT22;13877;18.896;-99.222;2024-01-07T05:38:12;18.40;1.00
12413;DHT22;13877;18.896;-99.222;2024-01-07T05:40:39;18.50;1.00
12413;DHT22;13877;18.896;-99.222;2024-01-07T05:43:06;18.50;1.00
12413;DHT22;13877;18.896;-99.222;2024-01-07T05:45:34;18.40;1.00
12413;DHT22;13877;18.896;-99.222;2024-01-07T05:48:01;18.30;1.00
12413;DHT22;13877;18.896;-99.222;2024-01-07T05:50:30;18.30;1.00
12413;DHT22;13877;18.896;-99.222;2024-01-07T05:52:57;18.30;1.00
12413;DHT22;13877;18.896;-99.222;2024-01-07T05:55:24;18.30;1.00
12413;DHT22;13877;18.896;-99.222;2024-01-07T05:57:51;18.20;1.00
12413;DHT22;13877;18.896;-99.222;2024-01-07T06:00:24;18.10;1.00
12413;DHT22;13877;18.896;-99.222;2024-01-07T06:02:51;18.10;1.00
12413;DHT22;13877;18.896;-99.222;2024-01-07T06:05:18;17.90;1.00
12413;DHT22;13877;18.896;-99.222;2024-01-07T06:07:46;17.80;1.00
12413;DHT22;13877;18.896;-99.222;2024-01-07T06:10:13;17.80;1.00
12413;DHT22;13877;18.896;-99.222;2024-01-07T06:12:41;17.70;1.00
12413;DHT22;13877;18.896;-99.222;2024-01-07T06:15:09;17.70;1.00
12413;DHT22;13877;18.896;-99.222;2024-01-07T06:17:36;18.10;1.00
12413;DHT22;13877;18.896;-99.222;2024-01-07T06:20:04;18.10;1.00
12413;DHT22;13877;18.896;-99.222;2024-01-07T06:22:33;17.90;1.00
12413;DHT22;13877;18.896;-99.222;2024-01-07T06:25:00;17.50;1.00
12413;DHT22;13877;18.896;-99.222;2024-01-07T06:27:27;17.50;1.00
12413;DHT22;13877;18.896;-99.222;2024-01-07T06:29:54;17.60;1.00
12413;DHT22;13877;18.896;-99.222;2024-01-07T06:32:22;17.40;1.00
12413;DHT22;13877;18.896;-99.222;2024-01-07T06:34:49;17.00;1.00
12413;DHT22;13877;18.896;-99.222;2024-01-07T06:37:17;17.20;1.00
12413;DHT22;13877;18.896;-99.222;2024-01-07T06:39:44;17.50;1.00
12413;DHT22;13877;18.896;-99.222;2024-01-07T06:42:11;17.40;1.00
12413;DHT22;13877;18.896;-99.222;2024-01-07T06:44:39;17.20;1.00
12413;DHT22;13877;18.896;-99.222;2024-01-07T06:47:06;17.00;1.00
12413;DHT22;13877;18.896;-99.222;2024-01-07T06:49:33;16.70;1.00
12413;DHT22;13877;18.896;-99.222;2024-01-07T06:52:00;16.40;1.00
12413;DHT22;13877;18.896;-99.222;2024-01-07T06:54:27;16.50;1.00
12413;DHT22;13877;18.896;-99.222;2024-01-07T06:56:55;16.50;1.00
12413;DHT22;13877;18.896;-99.222;2024-01-07T06:59:22;16.60;1.00
12413;DHT22;13877;18.896;-99.222;2024-01-07T07:01:50;16.60;1.00
12413;DHT22;13877;18.896;-99.222;2024-01-07T07:04:18;17.00;1.00
12413;DHT22;13877;18.896;-99.222;2024-01-07T07:06:45;17.10;1.00
12413;DHT22;13877;18.896;-99.222;2024-01-07T07:09:12;17.10;1.00
12413;DHT22;13877;18.896;-99.222;2024-01-07T07:11:42;17.00;1.00
12413;DHT22;13877;18.896;-99.222;2024-01-07T07:14:09;16.90;1.00
12413;DHT22;13877;18.896;-99.222;2024-01-07T07:16:38;17.10;1.00
12413;DHT22;13877;18.896;-99.222;2024-01-07T07:19:05;17.40;1.00
12413;DHT22;13877;18.896;-99.222;2024-01-07T07:21:33;17.40;1.00
12413;DHT22;13877;18.896;-99.222;2024-01-07T07:24:00;17.20;1.00
12413;DHT22;13877;18.896;-99.222;2024-01-07T07:26:27;17.00;1.00
12413;DHT22;13877;18.896;-99.222;2024-01-07T07:28:54;16.60;1.00
12413;DHT22;13877;18.896;-99.222;2024-01-07T07:31:22;16.30;1.00
12413;DHT22;13877;18.896;-99.222;2024-01-07T07:33:49;16.30;1.00
12413;DHT22;13877;18.896;-99.222;2024-01-07T07:36:17;16.30;1.00
12413;DHT22;13877;18.896;-99.222;2024-01-07T07:38:44;16.40;1.00
12413;DHT22;13877;18.896;-99.222;2024-01-07T07:41:11;16.60;1.00
12413;DHT22;13877;18.896;-99.222;2024-01-07T07:43:38;16.80;1.00
12413;DHT22;13877;18.896;-99.222;2024-01-07T07:46:06;16.90;1.00
12413;DHT22;13877;18.896;-99.222;2024-01-07T07:48:34;16.90;1.00
12413;DHT22;13877;18.896;-99.222;2024-01-07T07:51:01;16.90;1.00
12413;DHT22;13877;18.896;-99.222;2024-01-07T07:53:28;16.80;1.00
12413;DHT22;13877;18.896;-99.222;2024-01-07T07:55:55;16.80;1.00
12413;DHT22;13877;18.896;-99.222;2024-01-07T07:58:22;16.80;1.00
12413;DHT22;13877;18.896;-99.222;2024-01-07T08:00:50;16.90;1.00
12413;DHT22;13877;18.896;-99.222;2024-01-07T08:03:17;16.80;1.00
12413;DHT22;13877;18.896;-99.222;2024-01-07T08:05:44;16.70;1.00
12413;DHT22;13877;18.896;-99.222;2024-01-07T08:08:12;16.60;1.00
12413;DHT22;13877;18.896;-99.222;2024-01-07T08:10:39;16.60;1.00
12413;DHT22;13877;18.896;-99.222;2024-01-07T08:13:06;16.50;1.00
12413;DHT22;13877;18.896;-99.222;2024-01-07T08:15:34;16.50;1.00
12413;DHT22;13877;18.896;-99.222;2024-01-07T08:18:02;16.50;1.00
12413;DHT22;13877;18.896;-99.222;2024-01-07T08:20:30;16.60;1.00
12413;DHT22;13877;18.896;-99.222;2024-01-07T08:22:59;16.60;1.00
12413;DHT22;13877;18.896;-99.222;2024-01-07T08:25:28;16.60;1.00
12413;DHT22;13877;18.896;-99.222;2024-01-07T08:27:55;16.40;1.00
12413;DHT22;13877;18.896;-99.222;2024-01-07T08:30:23;16.30;1.00
12413;DHT22;13877;18.896;-99.222;2024-01-07T08:32:50;16.20;1.00
12413;DHT22;13877;18.896;-99.222;2024-01-07T08:35:20;16.30;1.00
12413;DHT22;13877;18.896;-99.222;2024-01-07T08:37:49;16.30;1.00
12413;DHT22;13877;18.896;-99.222;2024-01-07T08:40:16;16.50;1.00
12413;DHT22;13877;18.896;-99.222;2024-01-07T08:42:46;16.50;1.00
12413;DHT22;13877;18.896;-99.222;2024-01-07T08:45:14;16.50;1.00
12413;DHT22;13877;18.896;-99.222;2024-01-07T08:47:42;16.50;1.00
12413;DHT22;13877;18.896;-99.222;2024-01-07T08:50:09;16.50;1.00
12413;DHT22;13877;18.896;-99.222;2024-01-07T08:52:36;16.50;1.00
12413;DHT22;13877;18.896;-99.222;2024-01-07T08:55:04;16.40;1.00
12413;DHT22;13877;18.896;-99.222;2024-01-07T08:57:33;16.30;1.00
12413;DHT22;13877;18.896;-99.222;2024-01-07T09:00:00;16.10;1.00
12413;DHT22;13877;18.896;-99.222;2024-01-07T09:02:28;16.20;1.00
12413;DHT22;13877;18.896;-99.222;2024-01-07T09:04:55;16.20;1.00
12413;DHT22;13877;18.896;-99.222;2024-01-07T09:07:24;16.00;1.00
12413;DHT22;13877;18.896;-99.222;2024-01-07T09:09:51;16.10;1.00
12413;DHT22;13877;18.896;-99.222;2024-01-07T09:12:22;16.20;1.00
12413;DHT22;13877;18.896;-99.222;2024-01-07T09:14:49;16.20;1.00
12413;DHT22;13877;18.896;-99.222;2024-01-07T09:17:16;16.10;1.00
12413;DHT22;13877;18.896;-99.222;2024-01-07T09:19:43;15.80;1.00
12413;DHT22;13877;18.896;-99.222;2024-01-07T09:22:11;15.60;1.00
12413;DHT22;13877;18.896;-99.222;2024-01-07T09:24:38;15.20;1.00
12413;DHT22;13877;18.896;-99.222;2024-01-07T09:27:06;14.90;1.00
12413;DHT22;13877;18.896;-99.222;2024-01-07T09:29:33;14.80;1.00
12413;DHT22;13877;18.896;-99.222;2024-01-07T09:32:00;14.70;1.00
12413;DHT22;13877;18.896;-99.222;2024-01-07T09:34:29;14.70;1.00
12413;DHT22;13877;18.896;-99.222;2024-01-07T09:36:56;14.80;1.00
12413;DHT22;13877;18.896;-99.222;2024-01-07T09:39:23;14.90;1.00
12413;DHT22;13877;18.896;-99.222;2024-01-07T09:41:53;15.00;1.00
12413;DHT22;13877;18.896;-99.222;2024-01-07T09:44:20;15.30;1.00
12413;DHT22;13877;18.896;-99.222;2024-01-07T09:46:48;15.60;1.00
12413;DHT22;13877;18.896;-99.222;2024-01-07T09:49:18;15.60;1.00
12413;DHT22;13877;18.896;-99.222;2024-01-07T09:51:45;15.70;1.00
12413;DHT22;13877;18.896;-99.222;2024-01-07T09:54:18;15.70;1.00
12413;DHT22;13877;18.896;-99.222;2024-01-07T09:56:55;15.60;1.00
12413;DHT22;13877;18.896;-99.222;2024-01-07T09:59:25;15.70;1.00
12413;DHT22;13877;18.896;-99.222;2024-01-07T10:01:54;15.70;1.00
12413;DHT22;13877;18.896;-99.222;2024-01-07T10:04:25;15.70;1.00
12413;DHT22;13877;18.896;-99.222;2024-01-07T10:06:52;15.60;1.00
12413;DHT22;13877;18.896;-99.222;2024-01-07T10:09:23;15.60;1.00
12413;DHT22;13877;18.896;-99.222;2024-01-07T10:11:50;15.50;1.00
12413;DHT22;13877;18.896;-99.222;2024-01-07T10:14:18;15.50;1.00
12413;DHT22;13877;18.896;-99.222;2024-01-07T10:16:49;15.40;1.00
12413;DHT22;13877;18.896;-99.222;2024-01-07T10:19:24;15.10;1.00
12413;DHT22;13877;18.896;-99.222;2024-01-07T10:22:04;15.10;1.00
12413;DHT22;13877;18.896;-99.222;2024-01-07T10:24:41;15.20;1.00
12413;DHT22;13877;18.896;-99.222;2024-01-07T10:27:10;15.10;1.00
12413;DHT22;13877;18.896;-99.222;2024-01-07T10:29:37;15.00;1.00
12413;DHT22;13877;18.896;-99.222;2024-01-07T10:32:05;15.10;1.00
12413;DHT22;13877;18.896;-99.222;2024-01-07T10:34:34;15.20;1.00
12413;DHT22;13877;18.896;-99.222;2024-01-07T10:37:04;15.10;1.00
12413;DHT22;13877;18.896;-99.222;2024-01-07T10:39:31;15.10;1.00
12413;DHT22;13877;18.896;-99.222;2024-01-07T10:42:00;15.00;1.00
12413;DHT22;13877;18.896;-99.222;2024-01-07T10:44:32;15.00;1.00
12413;DHT22;13877;18.896;-99.222;2024-01-07T10:47:00;15.10;1.00
12413;DHT22;13877;18.896;-99.222;2024-01-07T10:49:31;15.40;1.00
12413;DHT22;13877;18.896;-99.222;2024-01-07T10:52:08;15.60;1.00
12413;DHT22;13877;18.896;-99.222;2024-01-07T10:54:39;15.70;1.00
12413;DHT22;13877;18.896;-99.222;2024-01-07T10:57:13;15.90;1.00
12413;DHT22;13877;18.896;-99.222;2024-01-07T10:59:46;16.10;1.00
12413;DHT22;13877;18.896;-99.222;2024-01-07T11:02:14;16.20;1.00
12413;DHT22;13877;18.896;-99.222;2024-01-07T11:04:51;16.20;1.00
12413;DHT22;13877;18.896;-99.222;2024-01-07T11:07:41;16.10;1.00
12413;DHT22;13877;18.896;-99.222;2024-01-07T11:10:19;15.90;1.00
12413;DHT22;13877;18.896;-99.222;2024-01-07T11:12:54;15.80;1.00
12413;DHT22;13877;18.896;-99.222;2024-01-07T11:18:21;15.70;1.00
12413;DHT22;13877;18.896;-99.222;2024-01-07T11:20:50;15.70;1.00
12413;DHT22;13877;18.896;-99.222;2024-01-07T11:23:30;15.70;1.00
12413;DHT22;13877;18.896;-99.222;2024-01-07T11:26:04;15.70;1.00
12413;DHT22;13877;18.896;-99.222;2024-01-07T11:28:47;15.60;1.00
12413;DHT22;13877;18.896;-99.222;2024-01-07T11:31:20;15.60;1.00
12413;DHT22;13877;18.896;-99.222;2024-01-07T11:33:49;15.70;1.00
12413;DHT22;13877;18.896;-99.222;2024-01-07T11:36:17;15.60;1.00
12413;DHT22;13877;18.896;-99.222;2024-01-07T11:38:49;15.60;1.00
12413;DHT22;13877;18.896;-99.222;2024-01-07T11:41:17;15.70;1.00
12413;DHT22;13877;18.896;-99.222;2024-01-07T11:43:59;15.70;1.00
12413;DHT22;13877;18.896;-99.222;2024-01-07T11:46:27;15.80;1.00
12413;DHT22;13877;18.896;-99.222;2024-01-07T11:48:57;15.80;1.00
12413;DHT22;13877;18.896;-99.222;2024-01-07T11:51:29;15.80;1.00
12413;DHT22;13877;18.896;-99.222;2024-01-07T11:54:02;15.80;1.00
12413;DHT22;13877;18.896;-99.222;2024-01-07T11:56:29;15.80;1.00
12413;DHT22;13877;18.896;-99.222;2024-01-07T11:58:56;15.80;1.00
12413;DHT22;13877;18.896;-99.222;2024-01-07T12:01:24;15.80;1.00
12413;DHT22;13877;18.896;-99.222;2024-01-07T12:03:54;15.80;1.00
12413;DHT22;13877;18.896;-99.222;2024-01-07T12:06:22;15.90;1.00
12413;DHT22;13877;18.896;-99.222;2024-01-07T12:08:49;15.80;1.00
12413;DHT22;13877;18.896;-99.222;2024-01-07T12:11:19;15.90;1.00
12413;DHT22;13877;18.896;-99.222;2024-01-07T12:13:47;15.90;1.00
12413;DHT22;13877;18.896;-99.222;2024-01-07T12:16:17;15.90;1.00
12413;DHT22;13877;18.896;-99.222;2024-01-07T12:18:44;15.90;1.00
12413;DHT22;13877;18.896;-99.222;2024-01-07T12:21:12;15.90;1.00
12413;DHT22;13877;18.896;-99.222;2024-01-07T12:23:48;15.90;1.00
12413;DHT22;13877;18.896;-99.222;2024-01-07T12:26:19;15.80;1.00
12413;DHT22;13877;18.896;-99.222;2024-01-07T12:28:53;15.70;1.00
12413;DHT22;13877;18.896;-99.222;2024-01-07T12:31:27;15.60;1.00
12413;DHT22;13877;18.896;-99.222;2024-01-07T12:33:54;15.60;1.00
12413;DHT22;13877;18.896;-99.222;2024-01-07T12:36:23;15.50;1.00
12413;DHT22;13877;18.896;-99.222;2024-01-07T12:38:52;15.50;1.00
12413;DHT22;13877;18.896;-99.222;2024-01-07T12:41:22;15.50;1.00
12413;DHT22;13877;18.896;-99.222;2024-01-07T12:43:50;15.50;1.00
12413;DHT22;13877;18.896;-99.222;2024-01-07T12:46:19;15.50;1.00
12413;DHT22;13877;18.896;-99.222;2024-01-07T12:48:46;15.40;1.00
12413;DHT22;13877;18.896;-99.222;2024-01-07T12:51:13;15.50;1.00
12413;DHT22;13877;18.896;-99.222;2024-01-07T12:53:40;15.60;1.00
12413;DHT22;13877;18.896;-99.222;2024-01-07T12:56:08;15.40;1.00
12413;DHT22;13877;18.896;-99.222;2024-01-07T12:58:36;15.20;1.00
12413;DHT22;13877;18.896;-99.222;2024-01-07T13:01:03;15.00;1.00
12413;DHT22;13877;18.896;-99.222;2024-01-07T13:03:30;14.70;1.00
12413;DHT22;13877;18.896;-99.222;2024-01-07T13:05:58;14.50;1.00
12413;DHT22;13877;18.896;-99.222;2024-01-07T13:08:27;14.40;1.00
12413;DHT22;13877;18.896;-99.222;2024-01-07T13:10:56;14.50;1.00
12413;DHT22;13877;18.896;-99.222;2024-01-07T13:13:25;14.90;1.00
12413;DHT22;13877;18.896;-99.222;2024-01-07T13:15:52;15.10;1.00
12413;DHT22;13877;18.896;-99.222;2024-01-07T13:18:19;15.20;1.00
12413;DHT22;13877;18.896;-99.222;2024-01-07T13:20:48;15.30;1.00
12413;DHT22;13877;18.896;-99.222;2024-01-07T13:23:15;15.40;1.00
12413;DHT22;13877;18.896;-99.222;2024-01-07T13:25:43;15.50;1.00
12413;DHT22;13877;18.896;-99.222;2024-01-07T13:28:10;15.50;1.00
12413;DHT22;13877;18.896;-99.222;2024-01-07T13:30:40;15.60;1.00
12413;DHT22;13877;18.896;-99.222;2024-01-07T13:33:09;15.70;1.00
12413;DHT22;13877;18.896;-99.222;2024-01-07T13:35:41;15.80;1.00
12413;DHT22;13877;18.896;-99.222;2024-01-07T13:38:08;15.80;1.00
12413;DHT22;13877;18.896;-99.222;2024-01-07T13:40:36;15.80;1.00
12413;DHT22;13877;18.896;-99.222;2024-01-07T13:43:05;15.80;1.00
12413;DHT22;13877;18.896;-99.222;2024-01-07T13:45:32;16.30;1.00
12413;DHT22;13877;18.896;-99.222;2024-01-07T13:47:59;16.60;1.00
12413;DHT22;13877;18.896;-99.222;2024-01-07T13:50:26;16.90;1.00
12413;DHT22;13877;18.896;-99.222;2024-01-07T13:52:54;16.90;1.00
12413;DHT22;13877;18.896;-99.222;2024-01-07T13:55:21;17.20;1.00
12413;DHT22;13877;18.896;-99.222;2024-01-07T13:57:49;17.30;1.00
12413;DHT22;13877;18.896;-99.222;2024-01-07T14:00:17;17.00;1.00
12413;DHT22;13877;18.896;-99.222;2024-01-07T14:03:06;17.00;1.00
12413;DHT22;13877;18.896;-99.222;2024-01-07T14:05:54;17.30;1.00
12413;DHT22;13877;18.896;-99.222;2024-01-07T14:08:22;17.40;1.00
12413;DHT22;13877;18.896;-99.222;2024-01-07T14:10:49;17.40;1.00
12413;DHT22;13877;18.896;-99.222;2024-01-07T14:13:16;17.50;1.00
12413;DHT22;13877;18.896;-99.222;2024-01-07T14:15:44;17.60;1.00
12413;DHT22;13877;18.896;-99.222;2024-01-07T14:18:11;17.70;1.00
12413;DHT22;13877;18.896;-99.222;2024-01-07T14:20:43;17.90;1.00
12413;DHT22;13877;18.896;-99.222;2024-01-07T14:23:10;18.00;1.00
12413;DHT22;13877;18.896;-99.222;2024-01-07T14:25:39;18.00;1.00
12413;DHT22;13877;18.896;-99.222;2024-01-07T14:28:10;18.20;1.00
12413;DHT22;13877;18.896;-99.222;2024-01-07T14:30:37;18.60;1.00
12413;DHT22;13877;18.896;-99.222;2024-01-07T14:33:05;19.00;1.00
12413;DHT22;13877;18.896;-99.222;2024-01-07T14:35:33;19.40;1.00
12413;DHT22;13877;18.896;-99.222;2024-01-07T14:38:00;19.50;1.00
12413;DHT22;13877;18.896;-99.222;2024-01-07T14:40:31;19.70;1.00
12413;DHT22;13877;18.896;-99.222;2024-01-07T14:42:58;19.70;1.00
12413;DHT22;13877;18.896;-99.222;2024-01-07T14:45:26;19.80;1.00
12413;DHT22;13877;18.896;-99.222;2024-01-07T14:47:54;19.60;1.00
12413;DHT22;13877;18.896;-99.222;2024-01-07T14:50:22;19.70;1.00
12413;DHT22;13877;18.896;-99.222;2024-01-07T14:52:49;19.70;1.00
12413;DHT22;13877;18.896;-99.222;2024-01-07T14:55:16;19.80;1.00
12413;DHT22;13877;18.896;-99.222;2024-01-07T14:57:43;19.80;1.00
12413;DHT22;13877;18.896;-99.222;2024-01-07T15:00:11;19.80;1.00
12413;DHT22;13877;18.896;-99.222;2024-01-07T15:02:40;19.90;1.00
12413;DHT22;13877;18.896;-99.222;2024-01-07T15:05:07;19.90;1.00
12413;DHT22;13877;18.896;-99.222;2024-01-07T15:07:35;19.90;1.00
12413;DHT22;13877;18.896;-99.222;2024-01-07T15:10:02;19.90;1.00
12413;DHT22;13877;18.896;-99.222;2024-01-07T15:12:31;19.90;1.00
12413;DHT22;13877;18.896;-99.222;2024-01-07T15:15:03;19.90;1.00
12413;DHT22;13877;18.896;-99.222;2024-01-07T15:17:34;20.10;1.00
12413;DHT22;13877;18.896;-99.222;2024-01-07T15:20:01;20.30;1.00
12413;DHT22;13877;18.896;-99.222;2024-01-07T15:22:29;20.30;1.00
12413;DHT22;13877;18.896;-99.222;2024-01-07T15:24:56;20.50;1.00